Time;durP1;ratioP1;P1;durP2;ratioP2;P2;SDS_P1;SDS_P2;PMS_P1;PMS_P2;Temp;Humidity;BMP_temperature;BMP_pressure;BME280_temperature;BME280_humidity;BME280_pressure;Samples;Min_cycle;Max_cycle;Signal;HPM_P1;HPM_P2
2021/01/01 00:01:07;;;;;;;1999.78;999.90;;;;;;;;;;5050586;28;20539;-66
2021/01/01 00:03:33;;;;;;;1318.80;999.90;;;;;;;;;;5036863;28;20573;-66
2021/01/01 00:05:59;;;;;;;1496.30;999.90;;;;;;;;;;5040480;28;20108;-66
2021/01/01 00:08:25;;;;;;;342.73;307.30;;;;;;;;;;5042470;28;20052;-66
2021/01/01 00:10:52;;;;;;;698.03;623.97;;;;;;;;;;5051308;28;20032;-66
2021/01/01 00:13:18;;;;;;;369.27;332.52;;;;;;;;;;5049000;28;20064;-66
2021/01/01 00:15:44;;;;;;;367.02;330.63;;;;;;;;;;5051918;28;20207;-67
2021/01/01 00:18:11;;;;;;;374.55;337.63;;;;;;;;;;5038509;28;20120;-66
2021/01/01 00:20:41;;;;;;;351.80;315.88;;;;;;;;;;5048989;28;20033;-66
2021/01/01 00:23:08;;;;;;;1519.07;999.90;;;;;;;;;;5041168;28;20386;-65
2021/01/01 00:25:34;;;;;;;1999.90;999.90;;;;;;;;;;5049400;28;20031;-66
2021/01/01 00:28:00;;;;;;;1999.90;999.90;;;;;;;;;;5039855;28;20033;-65
2021/01/01 00:30:26;;;;;;;1999.90;999.90;;;;;;;;;;5051416;28;20021;-66
2021/01/01 00:32:52;;;;;;;1999.90;999.90;;;;;;;;;;5049617;28;20037;-65
2021/01/01 00:35:18;;;;;;;1999.90;999.90;;;;;;;;;;5051715;28;20029;-66
2021/01/01 00:37:44;;;;;;;371.13;334.40;;;;;;;;;;5050386;28;20056;-66
2021/01/01 00:40:10;;;;;;;1999.90;999.90;;;;;;;;;;5051729;28;20025;-66
2021/01/01 00:42:37;;;;;;;1999.90;999.90;;;;;;;;;;5049649;28;20079;-65
2021/01/01 00:45:06;;;;;;;1999.90;999.90;;;;;;;;;;5050715;28;20025;-67
2021/01/01 00:47:33;;;;;;;642.80;571.67;;;;;;;;;;5048851;28;20112;-65
2021/01/01 00:49:59;;;;;;;1999.90;999.90;;;;;;;;;;5050395;28;20064;-66
2021/01/01 00:52:25;;;;;;;1999.90;999.90;;;;;;;;;;5050426;28;20029;-64
2021/01/01 00:54:51;;;;;;;1535.13;999.90;;;;;;;;;;5049837;28;20029;-66
2021/01/01 00:57:17;;;;;;;1999.90;999.90;;;;;;;;;;5051693;28;20107;-67
2021/01/01 00:59:43;;;;;;;1999.90;999.90;;;;;;;;;;5052069;28;20052;-66
2021/01/01 01:02:09;;;;;;;1999.90;999.90;;;;;;;;;;5049949;28;20033;-65
2021/01/01 01:04:35;;;;;;;1518.78;999.90;;;;;;;;;;5055616;28;20044;-65
2021/01/01 01:07:01;;;;;;;360.63;324.42;;;;;;;;;;5054167;28;20098;-65
2021/01/01 01:09:27;;;;;;;1999.90;999.90;;;;;;;;;;5055779;28;20017;-66
2021/01/01 01:11:54;;;;;;;1995.53;999.90;;;;;;;;;;5053410;28;20028;-66
2021/01/01 01:14:20;;;;;;;360.90;324.80;;;;;;;;;;5055897;28;20093;-66
2021/01/01 01:16:46;;;;;;;363.10;326.55;;;;;;;;;;5052437;28;20036;-65
2021/01/01 01:19:12;;;;;;;359.52;323.35;;;;;;;;;;5055624;28;20036;-67
2021/01/01 01:21:39;;;;;;;1999.90;999.90;;;;;;;;;;5054586;28;20189;-66
2021/01/01 01:24:05;;;;;;;364.10;327.83;;;;;;;;;;5053940;28;20400;-66
2021/01/01 01:26:31;;;;;;;1999.90;999.90;;;;;;;;;;5055136;28;20112;-66
2021/01/01 01:28:57;;;;;;;1999.90;999.90;;;;;;;;;;5053659;28;20477;-65
2021/01/01 01:31:23;;;;;;;374.63;337.88;;;;;;;;;;5055115;28;20021;-65
2021/01/01 01:33:49;;;;;;;1531.13;999.90;;;;;;;;;;5052643;28;20033;-66
2021/01/01 01:36:15;;;;;;;364.08;327.95;;;;;;;;;;5054522;28;20095;-67
2021/01/01 01:38:41;;;;;;;1999.90;999.90;;;;;;;;;;5052780;28;20037;-66
2021/01/01 01:41:07;;;;;;;1495.90;999.90;;;;;;;;;;5052871;28;20385;-66
2021/01/01 01:43:34;;;;;;;1203.70;998.38;;;;;;;;;;5052543;28;20045;-66
2021/01/01 01:46:00;;;;;;;1999.90;999.90;;;;;;;;;;5054732;28;20049;-66
2021/01/01 01:48:33;;;;;;;1523.07;999.90;;;;;;;;;;5052784;28;20080;-66
2021/01/01 01:51:00;;;;;;;374.10;337.73;;;;;;;;;;5054636;28;20132;-66
2021/01/01 01:53:27;;;;;;;1999.90;999.90;;;;;;;;;;5047397;28;20112;-66
2021/01/01 01:55:53;;;;;;;;;;;;;;;;;;5051820;28;20111;-67
2021/01/01 01:58:22;;;;;;;341.98;306.75;;;;;;;;;;5051844;28;20338;-66
2021/01/01 02:00:58;;;;;;;339.25;304.45;;;;;;;;;;5051819;28;20111;-66
2021/01/01 02:03:24;;;;;;;367.00;331.10;;;;;;;;;;5051869;28;20499;-66
2021/01/01 02:05:50;;;;;;;364.83;328.80;;;;;;;;;;5052288;28;20504;-66
2021/01/01 02:08:16;;;;;;;1512.75;999.90;;;;;;;;;;5039961;28;20038;-66
2021/01/01 02:10:42;;;;;;;1517.00;999.90;;;;;;;;;;5052660;28;20028;-65
2021/01/01 02:13:09;;;;;;;354.67;319.10;;;;;;;;;;5051470;28;20029;-65
2021/01/01 02:15:35;;;;;;;373.50;337.00;;;;;;;;;;5053925;28;20025;-65
2021/01/01 02:18:01;;;;;;;1999.90;999.90;;;;;;;;;;5049271;28;20060;-66
2021/01/01 02:20:27;;;;;;;1999.22;999.90;;;;;;;;;;5053442;28;20470;-65
2021/01/01 02:22:53;;;;;;;343.60;308.45;;;;;;;;;;5050669;28;20041;-66
2021/01/01 02:25:19;;;;;;;612.50;546.42;;;;;;;;;;5052933;28;20037;-65
2021/01/01 02:27:46;;;;;;;1999.90;999.90;;;;;;;;;;5050495;28;20495;-65
2021/01/01 02:30:12;;;;;;;1996.82;999.90;;;;;;;;;;5052811;28;20070;-65
2021/01/01 02:32:38;;;;;;;1515.68;999.90;;;;;;;;;;5051641;28;20095;-65
2021/01/01 02:35:05;;;;;;;1530.82;999.90;;;;;;;;;;5054092;28;20539;-65
2021/01/01 02:37:31;;;;;;;364.10;328.20;;;;;;;;;;5050585;28;20024;-65
2021/01/01 02:39:57;;;;;;;1999.90;999.90;;;;;;;;;;5053143;28;20462;-66
2021/01/01 02:42:24;;;;;;;1999.90;999.90;;;;;;;;;;5051481;28;20037;-65
2021/01/01 02:44:50;;;;;;;1999.90;999.90;;;;;;;;;;5053029;28;20033;-65
2021/01/01 02:47:16;;;;;;;1531.13;999.90;;;;;;;;;;5051740;28;20037;-66
2021/01/01 02:49:43;;;;;;;353.48;317.88;;;;;;;;;;5047368;28;20098;-66
2021/01/01 02:52:09;;;;;;;1999.90;999.90;;;;;;;;;;5049944;28;20065;-65
2021/01/01 02:54:35;;;;;;;1528.47;999.90;;;;;;;;;;5050598;28;20025;-65
2021/01/01 02:57:01;;;;;;;1999.90;999.90;;;;;;;;;;5050957;28;20037;-65
2021/01/01 02:59:27;;;;;;;1999.90;999.90;;;;;;;;;;5053705;28;20028;-66
2021/01/01 03:01:53;;;;;;;364.27;328.20;;;;;;;;;;5050864;28;20087;-66
2021/01/01 03:04:19;;;;;;;337.00;302.45;;;;;;;;;;5049436;28;20041;-65
2021/01/01 03:06:45;;;;;;;364.88;328.83;;;;;;;;;;5051757;28;20033;-64
2021/01/01 03:09:11;;;;;;;1523.15;999.90;;;;;;;;;;5053340;28;20032;-66
2021/01/01 03:11:38;;;;;;;350.48;314.95;;;;;;;;;;5051159;28;20021;-66
2021/01/01 03:14:04;;;;;;;346.67;311.65;;;;;;;;;;5052061;28;20037;-66
2021/01/01 03:16:30;;;;;;;1496.63;999.90;;;;;;;;;;5053324;28;20051;-64
2021/01/01 03:18:56;;;;;;;1999.90;999.90;;;;;;;;;;5049596;28;20352;-64
2021/01/01 03:21:22;;;;;;;1999.90;999.90;;;;;;;;;;5053069;28;20358;-65
2021/01/01 03:23:48;;;;;;;712.67;633.85;;;;;;;;;;5051346;28;20040;-65
2021/01/01 03:26:14;;;;;;;1522.13;999.90;;;;;;;;;;5052497;28;20493;-65
2021/01/01 03:28:40;;;;;;;337.83;303.20;;;;;;;;;;5049675;28;20543;-66
2021/01/01 03:31:09;;;;;;;1999.90;999.90;;;;;;;;;;5053375;28;20397;-66
2021/01/01 03:33:35;;;;;;;656.53;580.83;;;;;;;;;;5049780;28;20025;-66
2021/01/01 03:36:03;;;;;;;340.52;305.88;;;;;;;;;;5053228;28;20035;-66
2021/01/01 03:38:30;;;;;;;331.08;297.02;;;;;;;;;;5050609;28;20040;-66
2021/01/01 03:40:56;;;;;;;345.15;310.73;;;;;;;;;;5053112;28;20033;-66
2021/01/01 03:43:22;;;;;;;1329.97;999.90;;;;;;;;;;5045574;28;20040;-67
2021/01/01 03:45:48;;;;;;;1999.90;999.90;;;;;;;;;;5049780;28;20021;-66
2021/01/01 03:48:15;;;;;;;1999.90;999.90;;;;;;;;;;5044193;28;20025;-66
2021/01/01 03:50:42;;;;;;;1999.90;999.90;;;;;;;;;;5051946;28;20033;-66
2021/01/01 03:53:08;;;;;;;1999.90;999.90;;;;;;;;;;5048137;28;20036;-66
2021/01/01 03:55:34;;;;;;;1999.90;999.90;;;;;;;;;;5051010;28;20039;-66
2021/01/01 03:58:00;;;;;;;361.45;326.08;;;;;;;;;;5050126;28;20029;-66
2021/01/01 04:00:26;;;;;;;353.00;317.83;;;;;;;;;;5051571;28;20078;-66
2021/01/01 04:02:52;;;;;;;1999.90;999.90;;;;;;;;;;5047802;28;20040;-66
2021/01/01 04:05:18;;;;;;;1509.75;999.90;;;;;;;;;;5052224;28;20033;-66
2021/01/01 04:07:44;;;;;;;314.55;280.80;;;;;;;;;;5043216;28;20022;-67
2021/01/01 04:10:10;;;;;;;1999.90;999.90;;;;;;;;;;5049177;28;20017;-65
2021/01/01 04:12:36;;;;;;;869.95;774.10;;;;;;;;;;5049907;28;20028;-65
2021/01/01 04:15:04;;;;;;;1501.53;999.90;;;;;;;;;;5052321;28;20481;-65
2021/01/01 04:17:30;;;;;;;356.50;321.23;;;;;;;;;;5050405;28;20025;-65
2021/01/01 04:19:56;;;;;;;343.25;308.75;;;;;;;;;;5051464;28;20045;-66
2021/01/01 04:22:22;;;;;;;341.55;306.95;;;;;;;;;;5050236;28;20068;-66
2021/01/01 04:24:48;;;;;;;333.08;299.20;;;;;;;;;;5049736;28;20025;-66
2021/01/01 04:27:14;;;;;;;1499.88;999.90;;;;;;;;;;5050263;28;20029;-66
2021/01/01 04:29:40;;;;;;;352.00;317.25;;;;;;;;;;5052120;28;20445;-65
2021/01/01 04:32:06;;;;;;;1495.20;999.90;;;;;;;;;;5051427;28;20060;-66
2021/01/01 04:34:32;;;;;;;1495.53;999.90;;;;;;;;;;5055810;28;20044;-66
2021/01/01 04:36:58;;;;;;;1999.18;999.90;;;;;;;;;;5054110;28;20104;-66
2021/01/01 04:39:24;;;;;;;331.70;297.63;;;;;;;;;;5051258;28;20021;-66
2021/01/01 04:41:53;;;;;;;329.45;295.33;;;;;;;;;;5053928;28;20028;-66
2021/01/01 04:44:20;;;;;;;1999.90;999.90;;;;;;;;;;5055256;28;20821;-66
2021/01/01 04:46:46;;;;;;;299.95;263.90;;;;;;;;;;5054259;28;20029;-66
2021/01/01 04:49:12;;;;;;;357.70;322.45;;;;;;;;;;5054635;28;20033;-66
2021/01/01 04:51:38;;;;;;;826.60;737.10;;;;;;;;;;5054960;28;20104;-66
2021/01/01 04:54:04;;;;;;;1499.82;999.90;;;;;;;;;;5054605;28;20040;-67
2021/01/01 04:56:30;;;;;;;319.58;286.15;;;;;;;;;;5056007;28;20036;-66
2021/01/01 04:58:56;;;;;;;346.30;311.80;;;;;;;;;;5053742;28;20059;-67
2021/01/01 05:01:24;;;;;;;308.75;275.75;;;;;;;;;;5054600;28;20033;-66
2021/01/01 05:03:50;;;;;;;335.50;301.48;;;;;;;;;;5054024;28;20047;-66
2021/01/01 05:06:26;;;;;;;1999.90;999.90;;;;;;;;;;5054697;28;20025;-66
2021/01/01 05:08:52;;;;;;;318.20;284.63;;;;;;;;;;5053001;28;20025;-68
2021/01/01 05:11:21;;;;;;;343.33;308.88;;;;;;;;;;5054600;28;20025;-66
2021/01/01 05:13:54;;;;;;;326.25;292.55;;;;;;;;;;5051919;28;20032;-66
2021/01/01 05:16:20;;;;;;;339.38;304.98;;;;;;;;;;5055500;28;20107;-65
2021/01/01 05:18:46;;;;;;;1440.15;999.90;;;;;;;;;;5053252;28;20112;-65
2021/01/01 05:21:21;;;;;;;1505.82;999.90;;;;;;;;;;5055271;28;20044;-67
2021/01/01 05:23:49;;;;;;;1507.53;999.90;;;;;;;;;;5052509;28;20033;-66
2021/01/01 05:26:15;;;;;;;317.20;283.77;;;;;;;;;;5052841;28;20025;-66
2021/01/01 05:28:47;;;;;;;1999.90;999.90;;;;;;;;;;5052076;28;20039;-66
2021/01/01 05:31:13;;;;;;;1497.05;999.90;;;;;;;;;;5055275;28;20104;-66
2021/01/01 05:33:42;;;;;;;386.60;350.50;;;;;;;;;;5048768;28;20392;-65
2021/01/01 05:36:08;;;;;;;343.48;309.02;;;;;;;;;;5052605;28;20104;-65
2021/01/01 05:38:36;;;;;;;1999.90;999.90;;;;;;;;;;5050485;28;20028;-66
2021/01/01 05:41:03;;;;;;;335.92;301.58;;;;;;;;;;5051541;28;20052;-66
2021/01/01 05:43:29;;;;;;;316.40;282.60;;;;;;;;;;5047069;28;20124;-65
2021/01/01 05:46:06;;;;;;;1999.90;999.90;;;;;;;;;;5054066;28;20036;-65
2021/01/01 05:48:32;;;;;;;1509.05;999.90;;;;;;;;;;5050586;28;20406;-66
2021/01/01 05:51:05;;;;;;;1999.90;999.90;;;;;;;;;;5052129;28;20033;-66
2021/01/01 05:53:31;;;;;;;322.45;288.40;;;;;;;;;;5050731;28;20033;-66
2021/01/01 05:56:07;;;;;;;324.45;290.65;;;;;;;;;;5052235;28;20435;-66
2021/01/01 05:58:33;;;;;;;1999.90;999.90;;;;;;;;;;5051851;28;20033;-67
2021/01/01 06:00:59;;;;;;;355.05;319.95;;;;;;;;;;5054242;28;20059;-66
2021/01/01 06:03:27;;;;;;;319.20;285.52;;;;;;;;;;5051523;28;20091;-66
2021/01/01 06:05:54;;;;;;;329.50;295.52;;;;;;;;;;5047891;28;20478;-65
2021/01/01 06:08:23;;;;;;;371.73;335.85;;;;;;;;;;5050973;28;20036;-67
2021/01/01 06:10:50;;;;;;;1999.90;999.90;;;;;;;;;;5055000;28;20037;-66
2021/01/01 06:13:20;;;;;;;353.85;318.45;;;;;;;;;;5046832;28;20103;-66
2021/01/01 06:15:54;;;;;;;1130.90;980.33;;;;;;;;;;5050183;28;20052;-65
2021/01/01 06:18:25;;;;;;;334.90;300.33;;;;;;;;;;5052181;28;20086;-65
2021/01/01 06:20:54;;;;;;;1999.75;999.90;;;;;;;;;;5054419;28;20643;-65
2021/01/01 06:23:30;;;;;;;340.60;306.15;;;;;;;;;;5052145;28;20040;-65
2021/01/01 06:25:57;;;;;;;328.75;294.90;;;;;;;;;;5052958;28;20029;-65
2021/01/01 06:28:25;;;;;;;313.83;280.15;;;;;;;;;;5051608;28;20087;-65
2021/01/01 06:30:51;;;;;;;354.35;319.17;;;;;;;;;;5050883;28;20480;-65
2021/01/01 06:33:17;;;;;;;323.65;289.73;;;;;;;;;;5046207;28;20496;-66
2021/01/01 06:35:44;;;;;;;1031.30;916.33;;;;;;;;;;5052327;28;20051;-65
2021/01/01 06:38:10;;;;;;;1999.90;999.90;;;;;;;;;;5050914;28;20104;-66
2021/01/01 06:40:37;;;;;;;1518.43;999.90;;;;;;;;;;5052203;28;20036;-66
2021/01/01 06:43:06;;;;;;;331.98;298.05;;;;;;;;;;5044056;28;20501;-65
2021/01/01 06:45:36;;;;;;;340.45;305.75;;;;;;;;;;5046420;28;20028;-65
2021/01/01 06:48:05;;;;;;;1999.90;999.90;;;;;;;;;;5051849;28;20033;-66
2021/01/01 06:50:35;;;;;;;1999.90;999.90;;;;;;;;;;5052881;28;20363;-66
2021/01/01 06:53:01;;;;;;;349.48;314.77;;;;;;;;;;5051710;28;20441;-66
2021/01/01 06:55:31;;;;;;;1259.95;999.90;;;;;;;;;;5051833;28;20108;-66
2021/01/01 06:57:57;;;;;;;302.98;269.63;;;;;;;;;;5049947;28;20397;-66
2021/01/01 07:00:50;;;;;;;315.33;281.90;;;;;;;;;;5053609;28;20432;-65
2021/01/01 07:03:42;;;;;;;1999.90;999.90;;;;;;;;;;5049797;28;20102;-66
2021/01/01 07:06:08;;;;;;;877.88;780.53;;;;;;;;;;5044817;28;20120;-65
2021/01/01 07:08:43;;;;;;;329.80;295.73;;;;;;;;;;5050650;28;20107;-66
2021/01/01 07:11:09;;;;;;;328.50;294.88;;;;;;;;;;5053058;28;20108;-66
2021/01/01 07:13:44;;;;;;;343.52;309.23;;;;;;;;;;5050276;28;20029;-65
2021/01/01 07:16:11;;;;;;;349.30;314.23;;;;;;;;;;5049345;28;20029;-66
2021/01/01 07:18:37;;;;;;;1999.90;999.90;;;;;;;;;;5047487;28;20053;-65
2021/01/01 07:21:06;;;;;;;1452.15;999.90;;;;;;;;;;5052601;28;20025;-65
2021/01/01 07:23:33;;;;;;;1999.90;999.90;;;;;;;;;;5046544;28;20782;-65
2021/01/01 07:25:59;;;;;;;1150.22;985.40;;;;;;;;;;5045096;28;20029;-65
2021/01/01 07:28:25;;;;;;;344.20;309.52;;;;;;;;;;5048343;28;20032;-65
2021/01/01 07:30:51;;;;;;;306.02;272.98;;;;;;;;;;5049118;28;20444;-65
2021/01/01 07:33:24;;;;;;;1999.90;999.90;;;;;;;;;;5044863;28;20471;-66
2021/01/01 07:35:53;;;;;;;1999.90;999.90;;;;;;;;;;5042883;28;20033;-65
2021/01/01 07:38:19;;;;;;;351.67;316.65;;;;;;;;;;5049600;28;20035;-66
2021/01/01 07:40:46;;;;;;;1999.90;999.90;;;;;;;;;;5052459;28;20017;-66
2021/01/01 07:43:12;;;;;;;348.45;313.73;;;;;;;;;;5048177;28;20397;-66
2021/01/01 07:45:38;;;;;;;1999.90;999.90;;;;;;;;;;5051229;28;20021;-66
2021/01/01 07:48:05;;;;;;;1999.90;999.90;;;;;;;;;;5048018;28;20090;-66
2021/01/01 07:50:31;;;;;;;1523.00;999.90;;;;;;;;;;5049975;28;20043;-66
2021/01/01 07:53:04;;;;;;;1999.90;999.90;;;;;;;;;;5045716;28;20033;-66
2021/01/01 07:55:30;;;;;;;1521.97;999.90;;;;;;;;;;5041663;28;20132;-66
2021/01/01 07:58:02;;;;;;;352.77;318.02;;;;;;;;;;5048646;28;20029;-66
2021/01/01 08:00:36;;;;;;;1999.90;999.90;;;;;;;;;;5052299;28;20064;-66
2021/01/01 08:03:02;;;;;;;1104.13;968.13;;;;;;;;;;5049388;28;20143;-66
2021/01/01 08:05:29;;;;;;;335.67;301.67;;;;;;;;;;5052188;28;20056;-66
2021/01/01 08:07:55;;;;;;;339.23;304.95;;;;;;;;;;5049441;28;20033;-66
2021/01/01 08:10:34;;;;;;;311.05;277.55;;;;;;;;;;5050644;28;20767;-66
2021/01/01 08:13:00;;;;;;;346.45;312.02;;;;;;;;;;5049915;28;20083;-65
2021/01/01 08:15:30;;;;;;;361.08;326.02;;;;;;;;;;5051588;28;20481;-66
2021/01/01 08:17:56;;;;;;;1999.90;999.90;;;;;;;;;;5049067;28;20037;-65
2021/01/01 08:20:22;;;;;;;299.73;256.63;;;;;;;;;;5049665;28;20028;-65
2021/01/01 08:22:50;;;;;;;334.60;300.38;;;;;;;;;;5049229;28;20037;-65
2021/01/01 08:25:17;;;;;;;320.05;286.58;;;;;;;;;;5051526;28;20457;-65
2021/01/01 08:27:45;;;;;;;331.20;297.13;;;;;;;;;;5049841;28;20033;-66
2021/01/01 08:30:11;;;;;;;;;;;;;;;;;;5048162;28;20477;-66
2021/01/01 08:32:37;;;;;;;1999.90;999.90;;;;;;;;;;5038616;28;19940;-66
2021/01/01 08:35:04;;;;;;;591.65;527.67;;;;;;;;;;5051694;28;20025;-66
2021/01/01 08:37:30;;;;;;;306.05;272.92;;;;;;;;;;5049661;28;20033;-66
2021/01/01 08:40:09;;;;;;;336.23;302.48;;;;;;;;;;5050511;28;20478;-66
2021/01/01 08:42:39;;;;;;;350.73;316.10;;;;;;;;;;5040055;28;20097;-66
2021/01/01 08:45:12;;;;;;;1999.90;999.90;;;;;;;;;;5051073;28;20021;-65
2021/01/01 08:47:41;;;;;;;1511.88;999.90;;;;;;;;;;5049311;28;20109;-65
2021/01/01 08:50:21;;;;;;;304.27;271.15;;;;;;;;;;5050282;28;20037;-65
2021/01/01 08:52:47;;;;;;;325.55;291.98;;;;;;;;;;5049201;28;20362;-66
2021/01/01 08:55:14;;;;;;;1999.90;999.90;;;;;;;;;;5049896;28;20421;-66
2021/01/01 08:57:40;;;;;;;309.00;275.63;;;;;;;;;;5049357;28;20029;-65
2021/01/01 09:00:07;;;;;;;338.02;303.33;;;;;;;;;;5050598;28;20021;-65
2021/01/01 09:02:33;;;;;;;338.95;304.65;;;;;;;;;;5049107;28;20029;-66
2021/01/01 09:05:00;;;;;;;1999.90;999.90;;;;;;;;;;5050035;28;20102;-66
2021/01/01 09:07:26;;;;;;;1998.78;999.90;;;;;;;;;;5047070;28;20381;-67
2021/01/01 09:09:52;;;;;;;612.78;545.30;;;;;;;;;;5044199;28;20060;-65
2021/01/01 09:12:19;;;;;;;309.13;276.02;;;;;;;;;;5047149;28;20032;-66
2021/01/01 09:14:45;;;;;;;313.88;280.42;;;;;;;;;;5046127;28;20591;-66
2021/01/01 09:17:11;;;;;;;1999.90;999.90;;;;;;;;;;5039225;28;20084;-66
2021/01/01 09:19:37;;;;;;;301.98;268.98;;;;;;;;;;5051358;28;20036;-65
2021/01/01 09:22:13;;;;;;;323.40;289.90;;;;;;;;;;5049430;28;20051;-66
2021/01/01 09:24:39;;;;;;;310.58;277.35;;;;;;;;;;5052899;28;20461;-65
2021/01/01 09:27:05;;;;;;;339.08;304.42;;;;;;;;;;5050895;28;20029;-66
2021/01/01 09:29:31;;;;;;;335.83;301.83;;;;;;;;;;5051938;28;20027;-66
2021/01/01 09:31:58;;;;;;;1999.90;999.90;;;;;;;;;;5050387;28;20028;-65
2021/01/01 09:34:24;;;;;;;310.50;277.10;;;;;;;;;;5049538;28;20940;-65
2021/01/01 09:36:50;;;;;;;304.42;271.17;;;;;;;;;;5049056;28;20029;-65
2021/01/01 09:39:16;;;;;;;340.77;306.42;;;;;;;;;;5052632;28;20040;-65
2021/01/01 09:41:47;;;;;;;345.23;310.75;;;;;;;;;;5052413;28;20029;-65
2021/01/01 09:44:13;;;;;;;304.25;271.30;;;;;;;;;;5053220;28;20731;-65
2021/01/01 09:46:43;;;;;;;324.20;290.25;;;;;;;;;;5051921;28;21641;-65
2021/01/01 09:49:09;;;;;;;310.02;276.60;;;;;;;;;;5053644;28;20087;-66
2021/01/01 09:51:35;;;;;;;331.75;297.63;;;;;;;;;;5054575;28;20492;-66
2021/01/01 09:54:01;;;;;;;342.23;307.85;;;;;;;;;;5053454;28;20039;-66
2021/01/01 09:56:34;;;;;;;354.13;319.10;;;;;;;;;;5041863;28;20048;-66
2021/01/01 09:59:00;;;;;;;322.67;289.15;;;;;;;;;;5051487;28;20104;-66
2021/01/01 10:01:29;;;;;;;327.20;293.13;;;;;;;;;;5050887;28;20032;-66
2021/01/01 10:03:56;;;;;;;327.40;293.63;;;;;;;;;;5050203;28;20060;-66
2021/01/01 10:06:22;;;;;;;312.58;279.38;;;;;;;;;;5052613;28;20485;-66
2021/01/01 10:08:48;;;;;;;334.70;300.73;;;;;;;;;;5052000;28;20029;-66
2021/01/01 10:11:14;;;;;;;1009.67;900.10;;;;;;;;;;5053914;28;20032;-64
2021/01/01 10:13:40;;;;;;;644.13;574.92;;;;;;;;;;5040246;28;20017;-65
2021/01/01 10:16:07;;;;;;;1996.90;999.90;;;;;;;;;;5052302;28;20025;-65
2021/01/01 10:18:33;;;;;;;289.80;250.03;;;;;;;;;;5049754;28;20469;-65
2021/01/01 10:20:59;;;;;;;331.27;297.40;;;;;;;;;;5053454;28;20033;-65
2021/01/01 10:23:25;;;;;;;336.75;302.60;;;;;;;;;;5051007;28;20048;-65
2021/01/01 10:25:52;;;;;;;1998.13;999.90;;;;;;;;;;5051410;28;20035;-66
2021/01/01 10:28:18;;;;;;;941.00;836.97;;;;;;;;;;5050353;28;20033;-66
2021/01/01 10:30:45;;;;;;;345.65;311.08;;;;;;;;;;5049157;28;20032;-66
2021/01/01 10:33:11;;;;;;;300.67;267.75;;;;;;;;;;5051706;28;20036;-66
2021/01/01 10:35:37;;;;;;;317.45;283.80;;;;;;;;;;5049770;28;20025;-66
2021/01/01 10:38:03;;;;;;;1999.90;999.90;;;;;;;;;;5043973;28;20020;-66
2021/01/01 10:40:29;;;;;;;1997.57;999.90;;;;;;;;;;5044923;28;20493;-66
2021/01/01 10:42:55;;;;;;;1467.30;999.90;;;;;;;;;;5041634;28;20053;-64
2021/01/01 10:45:21;;;;;;;336.15;301.58;;;;;;;;;;5050607;28;20032;-65
2021/01/01 10:47:48;;;;;;;339.80;305.17;;;;;;;;;;5044417;28;20101;-65
2021/01/01 10:50:14;;;;;;;1991.25;999.90;;;;;;;;;;5049541;28;20381;-65
2021/01/01 10:52:40;;;;;;;299.42;266.50;;;;;;;;;;5049564;28;20029;-65
2021/01/01 10:55:07;;;;;;;1999.90;999.90;;;;;;;;;;5050055;28;20044;-65
2021/01/01 10:57:33;;;;;;;1381.72;999.90;;;;;;;;;;5047146;28;20047;-65
2021/01/01 10:59:59;;;;;;;1382.40;999.90;;;;;;;;;;5053466;28;20392;-65
2021/01/01 11:02:25;;;;;;;321.45;287.92;;;;;;;;;;5048381;28;20129;-66
2021/01/01 11:04:51;;;;;;;316.65;283.13;;;;;;;;;;5052553;28;20025;-66
2021/01/01 11:07:17;;;;;;;299.88;266.85;;;;;;;;;;5048572;28;20056;-66
2021/01/01 11:09:43;;;;;;;303.80;270.77;;;;;;;;;;5053016;28;20492;-66
2021/01/01 11:12:09;;;;;;;329.55;295.48;;;;;;;;;;5049639;28;20116;-66
2021/01/01 12:24:16;;;;;;;344.30;309.60;;;;;;;;;;5047284;28;20041;-70
2021/01/01 12:26:42;;;;;;;477.90;426.52;;;;;;;;;;5043483;28;20090;-69
2021/01/01 12:29:09;;;;;;;345.23;310.42;;;;;;;;;;5048222;28;20029;-68
2021/01/01 12:31:35;;;;;;;342.05;307.35;;;;;;;;;;5048940;28;20036;-70
2021/01/01 12:34:01;;;;;;;336.02;301.63;;;;;;;;;;5049013;28;20032;-69
2021/01/01 12:36:27;;;;;;;306.75;273.60;;;;;;;;;;5052267;28;20029;-70
2021/01/01 12:38:53;;;;;;;1489.18;999.90;;;;;;;;;;5049414;28;20496;-70
2021/01/01 12:41:19;;;;;;;325.02;291.20;;;;;;;;;;5051916;28;20029;-70
2021/01/01 12:43:46;;;;;;;327.33;293.38;;;;;;;;;;5046490;28;20055;-70
2021/01/01 12:46:12;;;;;;;1998.85;999.90;;;;;;;;;;5051924;28;20032;-70
2021/01/01 12:48:38;;;;;;;365.87;330.03;;;;;;;;;;5050264;28;20614;-70
2021/01/01 12:51:04;;;;;;;1496.20;999.90;;;;;;;;;;5051956;28;20267;-70
2021/01/01 12:53:30;;;;;;;347.13;312.13;;;;;;;;;;5051080;28;20028;-69
2021/01/01 12:55:56;;;;;;;1999.90;999.90;;;;;;;;;;5054341;28;20041;-70
2021/01/01 12:58:22;;;;;;;1251.95;999.90;;;;;;;;;;5053518;28;20029;-70
2021/01/01 13:00:49;;;;;;;311.67;278.40;;;;;;;;;;5056111;28;20043;-71
2021/01/01 13:03:15;;;;;;;318.75;285.20;;;;;;;;;;5054074;28;20033;-71
2021/01/01 13:05:41;;;;;;;1982.47;999.90;;;;;;;;;;5055901;28;20064;-72
2021/01/01 13:08:08;;;;;;;348.17;313.15;;;;;;;;;;5053982;28;20430;-69
2021/01/01 13:10:34;;;;;;;334.65;300.40;;;;;;;;;;5053445;28;20392;-70
2021/01/01 13:13:00;;;;;;;334.55;300.42;;;;;;;;;;5042785;28;20038;-71
2021/01/01 13:15:26;;;;;;;336.38;302.05;;;;;;;;;;5053820;28;20078;-69
2021/01/01 13:17:52;;;;;;;318.08;284.35;;;;;;;;;;5049463;28;20037;-71
2021/01/01 13:20:18;;;;;;;736.55;660.58;;;;;;;;;;5054132;28;20029;-69
2021/01/01 13:22:44;;;;;;;320.85;286.75;;;;;;;;;;5052872;28;20029;-71
2021/01/01 13:25:11;;;;;;;561.47;501.92;;;;;;;;;;5055126;28;20108;-70
2021/01/01 13:27:37;;;;;;;357.58;322.15;;;;;;;;;;5049197;28;20473;-68
2021/01/01 13:30:04;;;;;;;329.08;294.80;;;;;;;;;;5055570;28;20099;-71
2021/01/01 13:32:30;;;;;;;350.25;314.75;;;;;;;;;;5052138;28;20108;-69
2021/01/01 13:34:56;;;;;;;343.05;308.23;;;;;;;;;;5055493;28;20103;-69
2021/01/01 13:37:22;;;;;;;320.48;286.42;;;;;;;;;;5052562;28;20021;-70
2021/01/01 13:39:48;;;;;;;1965.70;999.90;;;;;;;;;;5055306;28;20477;-71
2021/01/01 13:42:15;;;;;;;385.42;348.58;;;;;;;;;;5053195;28;20025;-71
2021/01/01 13:44:41;;;;;;;;;;;;;;;;;;5054925;28;20505;-70
2021/01/01 13:47:07;;;;;;;316.80;282.95;;;;;;;;;;5052482;28;19980;-71
2021/01/01 13:49:33;;;;;;;1179.07;997.25;;;;;;;;;;5054354;28;20072;-71
2021/01/01 13:52:02;;;;;;;369.85;333.75;;;;;;;;;;5052678;28;20453;-70
2021/01/01 13:54:29;;;;;;;345.25;310.13;;;;;;;;;;5054698;28;20112;-71
2021/01/01 13:56:55;;;;;;;349.85;314.30;;;;;;;;;;5051251;28;20029;-70
2021/01/01 13:59:21;;;;;;;351.25;315.92;;;;;;;;;;5054996;28;20053;-71
2021/01/01 14:01:47;;;;;;;371.90;335.55;;;;;;;;;;5052840;28;20053;-70
2021/01/01 14:04:13;;;;;;;374.50;338.33;;;;;;;;;;5047995;28;20033;-69
2021/01/01 14:06:39;;;;;;;326.73;292.23;;;;;;;;;;5046945;28;20036;-70
2021/01/01 14:09:05;;;;;;;399.17;362.08;;;;;;;;;;5045365;28;20029;-70
2021/01/01 14:11:31;;;;;;;354.58;319.23;;;;;;;;;;5052350;28;20032;-71
2021/01/01 14:13:58;;;;;;;335.80;301.02;;;;;;;;;;5048939;28;20409;-71
2021/01/01 14:16:24;;;;;;;351.40;316.23;;;;;;;;;;5044053;28;20079;-70
2021/01/01 14:18:50;;;;;;;1946.18;999.90;;;;;;;;;;5047926;28;20033;-70
2021/01/01 14:21:16;;;;;;;1063.20;951.85;;;;;;;;;;5048724;28;20044;-69
2021/01/01 14:23:42;;;;;;;369.33;333.35;;;;;;;;;;5049860;28;20481;-70
2021/01/01 14:26:08;;;;;;;329.58;295.17;;;;;;;;;;5053272;28;20485;-70
2021/01/01 14:28:34;;;;;;;316.52;282.50;;;;;;;;;;5044595;28;20033;-70
2021/01/01 14:31:00;;;;;;;321.27;287.15;;;;;;;;;;5048268;28;20030;-70
2021/01/01 14:33:26;;;;;;;316.52;282.65;;;;;;;;;;5046134;28;20029;-70
2021/01/01 14:35:52;;;;;;;367.85;332.23;;;;;;;;;;5053526;28;20078;-70
2021/01/01 14:38:19;;;;;;;340.95;306.45;;;;;;;;;;5052364;28;20100;-69
2021/01/01 14:40:45;;;;;;;339.45;304.65;;;;;;;;;;5048941;28;20120;-69
2021/01/01 14:43:11;;;;;;;339.58;304.98;;;;;;;;;;5051797;28;20069;-68
2021/01/01 14:45:38;;;;;;;327.63;293.52;;;;;;;;;;5053077;28;20485;-69
2021/01/01 14:48:06;;;;;;;341.08;306.30;;;;;;;;;;5051579;28;20112;-69
2021/01/01 14:50:32;;;;;;;366.65;331.08;;;;;;;;;;5053075;28;20021;-70
2021/01/01 14:52:58;;;;;;;342.60;307.75;;;;;;;;;;5051626;28;20440;-69
2021/01/01 14:55:24;;;;;;;313.88;279.85;;;;;;;;;;5053414;28;20037;-69
2021/01/01 14:57:50;;;;;;;339.25;304.38;;;;;;;;;;5052197;28;20077;-68